Time;durP1;ratioP1;P1;durP2;ratioP2;P2;SDS_P1;SDS_P2;PMS_P1;PMS_P2;Temp;Humidity;BMP_temperature;BMP_pressure;BME280_temperature;BME280_humidity;BME280_pressure;Samples;Min_cycle;Max_cycle;Signal;HPM_P1;HPM_P2
2024/03/31 00:01:06;;;;;;;;;;;;;;;21.63;35.27;99107.28;4212557;28;19928;-70
2024/03/31 00:03:07;;;;;;;;;;;;;;;21.62;35.27;99110.16;4212121;28;20472;-70
2024/03/31 00:05:08;;;;;;;;;;;;;;;21.62;35.42;99112.81;4212455;28;19928;-69
2024/03/31 00:07:08;;;;;;;;;;;;;;;21.61;35.36;99100.44;4212460;28;20010;-69
2024/03/31 00:09:09;;;;;;;;;;;;;;;21.62;35.36;99104.78;4211963;28;19928;-69
2024/03/31 00:11:12;;;;;;;;;;;;;;;21.60;35.28;99106.78;4245661;28;20328;-68
2024/03/31 00:13:13;;;;;;;;;;;;;;;21.59;35.40;99100.59;4212296;28;19924;-69
2024/03/31 00:15:13;;;;;;;;;;;;;;;21.59;35.50;99105.13;4212015;28;19924;-69
2024/03/31 00:17:14;;;;;;;;;;;;;;;21.60;35.27;99102.25;4211995;28;19985;-69
2024/03/31 00:19:15;;;;;;;;;;;;;;;21.59;35.29;99091.75;4212354;28;19971;-69
2024/03/31 00:21:16;;;;;;;;;;;;;;;21.60;35.56;99099.59;4212165;28;19924;-70
2024/03/31 00:23:17;;;;;;;;;;;;;;;21.58;35.54;99101.63;4211998;28;19924;-69
2024/03/31 00:25:18;;;;;;;;;;;;;;;21.59;35.24;99091.75;4194921;28;19924;-69
2024/03/31 00:27:19;;;;;;;;;;;;;;;21.59;35.42;99081.88;4211987;28;19950;-70
2024/03/31 00:29:20;;;;;;;;;;;;;;;21.61;35.40;99087.06;4212034;28;20022;-69
2024/03/31 00:31:21;;;;;;;;;;;;;;;21.59;35.46;99083.72;4212088;28;19925;-69
2024/03/31 00:33:22;;;;;;;;;;;;;;;21.57;35.45;99086.56;4212834;28;19931;-70
2024/03/31 00:35:23;;;;;;;;;;;;;;;21.59;35.55;99083.72;4214767;28;19935;-68
2024/03/31 00:37:24;;;;;;;;;;;;;;;21.59;35.60;99081.88;4214907;28;19924;-68
2024/03/31 00:39:25;;;;;;;;;;;;;;;21.58;35.23;99085.56;4214719;28;19971;-68
2024/03/31 00:41:25;;;;;;;;;;;;;;;21.57;35.43;99086.56;4198034;28;19931;-68
2024/03/31 00:43:26;;;;;;;;;;;;;;;21.58;35.41;99068.66;4215043;28;20022;-68
2024/03/31 00:45:30;;;;;;;;;;;;;;;21.57;35.41;99075.88;4215009;28;20604;-68
2024/03/31 00:47:31;;;;;;;;;;;;;;;21.55;35.69;99070.63;4214911;28;19924;-68
2024/03/31 00:49:32;;;;;;;;;;;;;;;21.57;35.23;99070.50;4198115;28;19930;-69
2024/03/31 00:51:33;;;;;;;;;;;;;;;21.58;35.35;99071.34;4214893;28;19981;-68
2024/03/31 00:53:33;;;;;;;;;;;;;;;21.57;35.41;99066.97;4214762;28;19924;-68
2024/03/31 00:55:34;;;;;;;;;;;;;;;21.55;35.50;99065.28;4214881;28;19936;-68
2024/03/31 00:57:35;;;;;;;;;;;;;;;21.55;35.43;99059.09;4214613;28;20011;-69
2024/03/31 00:59:36;;;;;;;;;;;;;;;21.52;35.74;99060.28;4214732;28;20015;-69
2024/03/31 01:01:37;;;;;;;;;;;;;;;21.52;35.79;99065.63;4214458;28;19928;-69
2024/03/31 01:03:38;;;;;;;;;;;;;;;21.52;35.33;99070.97;4214518;28;19924;-69
2024/03/31 01:05:40;;;;;;;;;;;;;;;21.52;35.75;99067.47;4214668;28;19924;-69
2024/03/31 01:07:41;;;;;;;;;;;;;;;21.50;35.39;99072.97;4214420;28;19931;-68
2024/03/31 01:09:42;;;;;;;;;;;;;;;21.49;35.80;99070.47;4213946;28;19924;-69
2024/03/31 01:11:43;;;;;;;;;;;;;;;21.47;35.58;99076.00;4214555;28;20538;-69
2024/03/31 01:13:45;;;;;;;;;;;;;;;21.49;35.46;99073.16;4214282;28;20419;-69
2024/03/31 01:15:46;;;;;;;;;;;;;;;21.49;35.52;99079.31;4197593;28;19924;-70
2024/03/31 01:17:47;;;;;;;;;;;;;;;21.49;35.49;99071.28;4197646;28;19931;-70
2024/03/31 01:19:48;;;;;;;;;;;;;;;21.52;35.39;99073.66;4214436;28;19934;-69
2024/03/31 01:21:49;;;;;;;;;;;;;;;21.51;35.83;99071.97;4214132;28;19931;-69
2024/03/31 01:23:55;;;;;;;;;;;;;;;21.52;35.56;99076.31;4214092;28;20007;-69
2024/03/31 01:26:00;;;;;;;;;;;;;;;21.53;35.62;99083.34;4214183;28;19932;-70
2024/03/31 01:28:01;;;;;;;;;;;;;;;21.55;35.64;99073.31;4214397;28;19930;-70
2024/03/31 01:30:02;;;;;;;;;;;;;;;21.55;35.57;99075.16;4214148;28;20309;-70
2024/03/31 01:32:03;;;;;;;;;;;;;;;21.55;35.58;99067.13;4214130;28;19932;-69
2024/03/31 01:34:04;;;;;;;;;;;;;;;21.55;35.83;99065.28;4214255;28;20466;-70
2024/03/31 01:36:05;;;;;;;;;;;;;;;21.55;35.65;99064.44;4214146;28;19932;-69
2024/03/31 01:38:06;;;;;;;;;;;;;;;21.54;35.95;99063.63;4213668;28;20282;-70
2024/03/31 01:40:07;;;;;;;;;;;;;;;21.55;35.57;99061.78;4197511;28;20023;-70
2024/03/31 01:42:08;;;;;;;;;;;;;;;21.54;35.76;99055.59;4213985;28;20335;-69
2024/03/31 01:44:09;;;;;;;;;;;;;;;21.58;35.88;99055.28;4213704;28;20014;-70
2024/03/31 01:46:10;;;;;;;;;;;;;;;21.56;35.80;99063.44;4213852;28;19931;-70
2024/03/31 01:48:11;;;;;;;;;;;;;;;21.57;35.88;99051.78;4213755;28;19931;-70
2024/03/31 01:50:12;;;;;;;;;;;;;;;21.59;35.66;99055.09;4213981;28;19924;-69
2024/03/31 01:52:13;;;;;;;;;;;;;;;21.61;35.97;99044.25;4213612;28;20338;-70
2024/03/31 01:54:13;;;;;;;;;;;;;;;21.60;35.84;99059.47;4197148;28;19925;-69
2024/03/31 01:56:14;;;;;;;;;;;;;;;21.61;35.66;99055.78;4213706;28;19973;-70
2024/03/31 01:58:15;;;;;;;;;;;;;;;21.61;35.50;99053.13;4213609;28;20427;-69
2024/03/31 02:00:16;;;;;;;;;;;;;;;21.60;35.62;99051.44;4213793;28;20027;-70
2024/03/31 02:02:17;;;;;;;;;;;;;;;21.58;36.00;99049.94;4213570;28;19924;-69
2024/03/31 02:04:18;;;;;;;;;;;;;;;21.58;35.68;99036.56;4213451;28;19935;-69
2024/03/31 02:06:19;;;;;;;;;;;;;;;21.58;35.68;99028.53;4212993;28;20036;-69
2024/03/31 02:08:20;;;;;;;;;;;;;;;21.56;35.73;99026.00;4213475;28;20300;-68
2024/03/31 02:10:21;;;;;;;;;;;;;;;21.54;36.01;99031.53;4213587;28;19925;-69
2024/03/31 02:12:22;;;;;;;;;;;;;;;21.56;35.79;99034.03;4213457;28;19924;-69
2024/03/31 02:14:22;;;;;;;;;;;;;;;21.58;35.97;99040.09;4213349;28;19932;-69
2024/03/31 02:16:23;;;;;;;;;;;;;;;21.59;36.16;99030.22;4196652;28;19970;-69
2024/03/31 02:18:24;;;;;;;;;;;;;;;21.60;35.83;99024.69;4213554;28;19928;-69
2024/03/31 02:20:25;;;;;;;;;;;;;;;21.59;36.14;99030.22;4213414;28;20308;-69
2024/03/31 02:22:26;;;;;;;;;;;;;;;21.59;35.78;99023.00;4212796;28;19982;-70
2024/03/31 02:24:27;;;;;;;;;;;;;;;21.59;36.10;99028.34;4213349;28;20046;-70
2024/03/31 02:26:28;;;;;;;;;;;;;;;21.58;35.79;99020.50;4213383;28;19925;-70
2024/03/31 02:28:31;;;;;;;;;;;;;;;21.57;36.14;99022.38;4246830;27;19928;-70
2024/03/31 02:30:31;;;;;;;;;;;;;;;21.56;35.91;99020.66;4213352;28;19924;-70
2024/03/31 02:32:32;;;;;;;;;;;;;;;21.55;35.94;99025.16;4213281;28;20428;-70
2024/03/31 02:34:33;;;;;;;;;;;;;;;21.55;36.19;99029.69;4196488;28;19975;-70
2024/03/31 02:36:34;;;;;;;;;;;;;;;21.54;36.25;99018.16;4196129;28;20355;-70
2024/03/31 02:38:35;;;;;;;;;;;;;;;21.55;36.13;99025.16;4246847;27;20483;-70
2024/03/31 02:40:36;;;;;;;;;;;;;;;21.57;35.95;99024.19;4213140;28;19928;-70
2024/03/31 02:42:37;;;;;;;;;;;;;;;21.57;35.94;99024.19;4212981;28;19924;-70
2024/03/31 02:44:38;;;;;;;;;;;;;;;21.60;36.04;99023.88;4212999;28;19931;-70
2024/03/31 02:46:38;;;;;;;;;;;;;;;21.62;36.20;99021.88;4212960;28;19968;-70
2024/03/31 02:48:39;;;;;;;;;;;;;;;21.62;36.23;99014.66;4212787;28;20436;-70
2024/03/31 02:50:40;;;;;;;;;;;;;;;21.60;36.23;99013.97;4212767;28;20010;-70
2024/03/31 02:52:41;;;;;;;;;;;;;;;21.58;35.95;99009.81;4212853;28;19924;-70
2024/03/31 02:54:42;;;;;;;;;;;;;;;21.58;36.10;99005.31;4212711;28;20312;-71
2024/03/31 02:56:42;;;;;;;;;;;;;;;21.59;35.86;99014.16;4212502;28;19924;-71
2024/03/31 02:58:43;;;;;;;;;;;;;;;21.60;35.99;99005.13;4212751;28;19998;-70
2024/03/31 03:00:44;;;;;;;;;;;;;;;21.58;36.26;99010.66;4212957;28;20062;-70
2024/03/31 03:02:45;;;;;;;;;;;;;;;21.57;36.35;98997.44;4212746;28;20294;-70
2024/03/31 03:04:46;;;;;;;;;;;;;;;21.57;35.99;99000.97;4212716;28;20023;-70
2024/03/31 03:06:47;;;;;;;;;;;;;;;21.57;35.94;98994.75;4212467;28;20019;-70
2024/03/31 03:08:47;;;;;;;;;;;;;;;21.57;36.30;98998.28;4212538;28;19966;-70
2024/03/31 03:10:52;;;;;;;;;;;;;;;21.59;36.10;98996.25;4212930;28;19924;-71
2024/03/31 03:12:53;;;;;;;;;;;;;;;21.59;36.08;98998.09;4212539;28;19924;-70
2024/03/31 03:14:54;;;;;;;;;;;;;;;21.57;36.33;98995.63;4212602;28;20483;-70
2024/03/31 03:16:55;;;;;;;;;;;;;;;21.59;36.35;98993.59;4212825;28;20393;-70
2024/03/31 03:18:55;;;;;;;;;;;;;;;21.59;36.26;98992.75;4212203;28;19935;-70
2024/03/31 03:20:57;;;;;;;;;;;;;;;21.58;36.35;98980.38;4212490;28;20397;-71
2024/03/31 03:22:58;;;;;;;;;;;;;;;21.58;36.18;98983.06;4212379;28;20002;-71
2024/03/31 03:24:59;;;;;;;;;;;;;;;21.57;36.48;98982.25;4212408;28;19928;-70
2024/03/31 03:27:00;;;;;;;;;;;;;;;21.57;36.33;98981.38;4212350;28;20349;-70
2024/03/31 03:29:01;;;;;;;;;;;;;;;21.55;36.42;98973.50;4212671;28;20006;-70
2024/03/31 03:31:03;;;;;;;;;;;;;;;21.55;36.20;98970.81;4212511;28;19930;-70
2024/03/31 03:33:04;;;;;;;;;;;;;;;21.55;36.39;98968.97;4212459;28;19924;-70
2024/03/31 03:35:05;;;;;;;;;;;;;;;21.55;36.08;98965.47;4212502;28;19971;-70
2024/03/31 03:37:05;;;;;;;;;;;;;;;21.54;36.46;98953.09;4212609;28;19954;-70
2024/03/31 03:39:06;;;;;;;;;;;;;;;21.54;36.22;98964.66;4212368;28;19924;-70
2024/03/31 03:41:07;;;;;;;;;;;;;;;21.59;36.41;98966.00;4212330;28;20329;-70
2024/03/31 03:43:08;;;;;;;;;;;;;;;21.58;36.38;98959.84;4212444;28;19930;-70
2024/03/31 03:45:09;;;;;;;;;;;;;;;21.61;36.33;98964.00;4212460;28;19969;-69
2024/03/31 03:47:10;;;;;;;;;;;;;;;21.58;36.48;98953.63;4195756;28;19925;-71
2024/03/31 03:49:11;;;;;;;;;;;;;;;21.58;36.18;98956.31;4211972;28;20035;-70
2024/03/31 03:51:12;;;;;;;;;;;;;;;21.55;36.40;98950.25;4212323;28;19951;-70
2024/03/31 03:53:13;;;;;;;;;;;;;;;21.55;36.50;98958.28;4212493;28;19931;-71
2024/03/31 03:55:13;;;;;;;;;;;;;;;21.54;36.42;98948.59;4212313;28;20326;-70
2024/03/31 03:57:14;;;;;;;;;;;;;;;21.52;36.40;98945.25;4212275;28;19928;-70
2024/03/31 03:59:15;;;;;;;;;;;;;;;21.53;36.51;98951.44;4212175;28;19987;-70
2024/03/31 04:01:16;;;;;;;;;;;;;;;21.54;36.32;98951.28;4212070;28;19935;-70
2024/03/31 04:03:17;;;;;;;;;;;;;;;21.53;36.33;98946.94;4211854;28;19924;-70
2024/03/31 04:05:18;;;;;;;;;;;;;;;21.55;36.63;98950.25;4212111;28;19967;-70
2024/03/31 04:07:19;;;;;;;;;;;;;;;21.55;36.52;98946.75;4212146;28;19928;-69
2024/03/31 04:09:20;;;;;;;;;;;;;;;21.57;36.33;98943.94;4214456;28;20366;-70
2024/03/31 04:11:24;;;;;;;;;;;;;;;21.55;36.25;98939.56;4215491;28;19924;-69
2024/03/31 04:13:25;;;;;;;;;;;;;;;21.57;36.59;98947.47;4215375;28;19924;-69
2024/03/31 04:15:26;;;;;;;;;;;;;;;21.59;36.49;98936.59;4215446;28;20550;-69
2024/03/31 04:17:27;;;;;;;;;;;;;;;21.56;36.29;98932.38;4214833;28;19924;-69
2024/03/31 04:19:28;;;;;;;;;;;;;;;21.55;36.18;98934.19;4215192;28;19924;-68
2024/03/31 04:21:28;;;;;;;;;;;;;;;21.55;36.11;98938.72;4215305;28;19924;-69
2024/03/31 04:23:29;;;;;;;;;;;;;;;21.54;36.24;98935.22;4215127;28;19930;-69
2024/03/31 04:25:30;;;;;;;;;;;;;;;21.51;36.51;98926.72;4214968;28;19932;-70
2024/03/31 04:27:31;;;;;;;;;;;;;;;21.52;36.59;98931.06;4215109;28;20433;-70
2024/03/31 04:29:32;;;;;;;;;;;;;;;21.50;36.47;98925.84;4215075;28;19925;-69
2024/03/31 04:31:33;;;;;;;;;;;;;;;21.50;36.36;98920.50;4214649;28;19924;-70
2024/03/31 04:33:33;;;;;;;;;;;;;;;21.51;36.27;98914.16;4215084;28;20389;-70
2024/03/31 04:35:35;;;;;;;;;;;;;;;21.51;36.66;98916.84;4215233;28;19924;-69
2024/03/31 04:37:36;;;;;;;;;;;;;;;21.54;36.43;98915.66;4214991;28;19934;-68
2024/03/31 04:39:37;;;;;;;;;;;;;;;21.54;36.56;98913.84;4214926;28;19968;-68
2024/03/31 04:41:38;;;;;;;;;;;;;;;21.52;36.35;98910.50;4214932;28;19928;-69
2024/03/31 04:43:38;;;;;;;;;;;;;;;21.52;36.19;98915.84;4214801;28;19946;-69
2024/03/31 04:45:39;;;;;;;;;;;;;;;21.53;36.47;98901.47;4214778;28;19995;-69
2024/03/31 04:47:40;;;;;;;;;;;;;;;21.52;36.25;98902.47;4214711;28;20354;-69
2024/03/31 04:49:42;;;;;;;;;;;;;;;21.51;36.55;98908.00;4214819;28;20030;-70
2024/03/31 04:51:43;;;;;;;;;;;;;;;21.50;36.36;98903.63;4214691;28;19974;-69
2024/03/31 04:53:44;;;;;;;;;;;;;;;21.50;36.55;98909.00;4214686;28;19928;-69
2024/03/31 04:55:45;;;;;;;;;;;;;;;21.50;36.55;98911.66;4214754;28;19924;-70
2024/03/31 04:57:46;;;;;;;;;;;;;;;21.49;36.35;98913.50;4214710;28;19928;-69
2024/03/31 04:59:47;;;;;;;;;;;;;;;21.50;36.27;98915.16;4197895;28;20043;-69
2024/03/31 05:01:48;;;;;;;;;;;;;;;21.50;36.41;98917.84;4214360;28;19924;-70
2024/03/31 05:03:48;;;;;;;;;;;;;;;21.52;36.53;98917.69;4214380;28;19970;-69
2024/03/31 05:05:49;;;;;;;;;;;;;;;21.52;36.42;98917.69;4214499;28;20035;-69
2024/03/31 05:07:50;;;;;;;;;;;;;;;21.52;36.44;98918.50;4214679;28;20015;-69
2024/03/31 05:09:51;;;;;;;;;;;;;;;21.55;36.39;98922.69;4214223;28;20321;-68
2024/03/31 05:11:52;;;;;;;;;;;;;;;21.54;36.31;98921.84;4214566;28;19930;-69
2024/03/31 05:13:53;;;;;;;;;;;;;;;21.53;36.37;98917.50;4214295;28;20359;-69
2024/03/31 05:15:57;;;;;;;;;;;;;;;21.52;36.54;98920.38;4214150;28;19924;-69
2024/03/31 05:17:58;;;;;;;;;;;;;;;21.50;36.61;98917.84;4214235;28;19938;-69
2024/03/31 05:19:59;;;;;;;;;;;;;;;21.50;36.58;98923.19;4213836;28;19924;-69
2024/03/31 05:22:00;;;;;;;;;;;;;;;21.47;36.40;98915.53;4214296;28;20003;-69
2024/03/31 05:24:01;;;;;;;;;;;;;;;21.45;36.29;98906.81;4214100;28;20431;-69
2024/03/31 05:26:02;;;;;;;;;;;;;;;21.45;36.38;98906.00;4214220;28;19924;-67
2024/03/31 05:28:03;;;;;;;;;;;;;;;21.44;36.49;98907.00;4214363;28;19924;-69
2024/03/31 05:30:04;;;;;;;;;;;;;;;21.45;36.50;98909.50;4213865;28;19950;-69
2024/03/31 05:32:05;;;;;;;;;;;;;;;21.48;36.71;98916.34;4214225;28;19931;-69
2024/03/31 05:34:06;;;;;;;;;;;;;;;21.48;36.34;98911.00;4213897;28;20404;-69
2024/03/31 05:36:07;;;;;;;;;;;;;;;21.48;36.53;98913.66;4213945;28;19924;-69
2024/03/31 05:38:08;;;;;;;;;;;;;;;21.48;36.59;98914.53;4214048;28;20014;-69
2024/03/31 05:40:09;;;;;;;;;;;;;;;21.48;36.70;98911.84;4214134;28;19982;-69
2024/03/31 05:42:10;;;;;;;;;;;;;;;21.49;36.34;98913.50;4213966;28;19928;-69
2024/03/31 05:44:11;;;;;;;;;;;;;;;21.47;36.55;98917.34;4213819;28;19924;-69
2024/03/31 05:46:12;;;;;;;;;;;;;;;21.46;36.63;98916.53;4213784;28;20016;-69
2024/03/31 05:48:13;;;;;;;;;;;;;;;21.46;36.36;98911.16;4213889;28;19924;-69
2024/03/31 05:50:13;;;;;;;;;;;;;;;21.45;36.42;98917.50;4213862;28;20348;-68
2024/03/31 05:52:14;;;;;;;;;;;;;;;21.42;36.54;98906.31;4213884;28;19924;-69
2024/03/31 05:54:15;;;;;;;;;;;;;;;21.42;36.61;98904.47;4213803;28;20011;-69
2024/03/31 05:56:16;;;;;;;;;;;;;;;21.41;36.42;98908.16;4213534;28;20399;-71
2024/03/31 05:58:17;;;;;;;;;;;;;;;21.42;36.34;98914.34;4196630;28;19931;-69
2024/03/31 06:00:18;;;;;;;;;;;;;;;21.42;36.66;98907.16;4213652;28;19928;-70
2024/03/31 06:02:19;;;;;;;;;;;;;;;21.44;36.39;98907.00;4213559;28;19966;-69
2024/03/31 06:04:19;;;;;;;;;;;;;;;21.43;36.79;98911.50;4213649;28;19924;-69
2024/03/31 06:06:20;;;;;;;;;;;;;;;21.45;36.66;98911.34;4213481;28;19951;-69
2024/03/31 06:08:21;;;;;;;;;;;;;;;21.42;36.66;98904.47;4213496;28;20003;-69
2024/03/31 06:10:22;;;;;;;;;;;;;;;21.43;36.63;98908.00;4213426;28;20526;-69
2024/03/31 06:12:23;;;;;;;;;;;;;;;21.41;36.58;98910.84;4213538;28;19931;-70
2024/03/31 06:14:24;;;;;;;;;;;;;;;21.41;36.37;98910.00;4213270;28;19994;-69
2024/03/31 06:16:25;;;;;;;;;;;;;;;21.39;36.47;98912.84;4196676;28;19925;-69
2024/03/31 06:18:26;;;;;;;;;;;;;;;21.38;36.72;98912.00;4196540;28;20356;-69
2024/03/31 06:20:27;;;;;;;;;;;;;;;21.36;36.42;98899.81;4213334;28;19928;-69
2024/03/31 06:22:27;;;;;;;;;;;;;;;21.37;36.63;98902.31;4213185;28;20405;-69
2024/03/31 06:24:31;;;;;;;;;;;;;;;21.39;36.35;98899.47;4213234;28;20388;-69
2024/03/31 06:26:31;;;;;;;;;;;;;;;21.37;36.78;98891.63;4213413;28;19947;-70
2024/03/31 06:28:33;;;;;;;;;;;;;;;21.39;36.32;98894.13;4212854;28;19924;-68
2024/03/31 06:30:34;;;;;;;;;;;;;;;21.41;36.31;98891.28;4212790;28;19924;-69
2024/03/31 06:32:35;;;;;;;;;;;;;;;21.41;36.45;98896.63;4213099;28;20389;-69
2024/03/31 06:34:35;;;;;;;;;;;;;;;21.40;36.46;98895.81;4213178;28;19932;-69
2024/03/31 06:36:36;;;;;;;;;;;;;;;21.41;36.32;98892.13;4213151;28;19971;-70
2024/03/31 06:38:37;;;;;;;;;;;;;;;21.39;36.46;98889.59;4213059;28;20419;-70
2024/03/31 06:40:38;;;;;;;;;;;;;;;21.39;36.39;98892.28;4213100;28;19924;-70
2024/03/31 06:42:39;;;;;;;;;;;;;;;21.38;36.64;98897.81;4212846;28;19930;-70
2024/03/31 06:44:40;;;;;;;;;;;;;;;21.37;36.34;98896.97;4212863;28;19963;-75
2024/03/31 06:46:40;;;;;;;;;;;;;;;21.35;36.65;98890.97;4212741;28;19924;-70
2024/03/31 06:48:41;;;;;;;;;;;;;;;21.35;36.64;98887.44;4213016;28;20368;-69
2024/03/31 06:50:42;;;;;;;;;;;;;;;21.35;36.77;98882.09;4212771;28;19928;-70
2024/03/31 06:52:43;;;;;;;;;;;;;;;21.36;36.30;98887.28;4212747;28;19971;-69
2024/03/31 06:54:44;;;;;;;;;;;;;;;21.37;36.38;98880.09;4212723;28;20385;-70
2024/03/31 06:56:45;;;;;;;;;;;;;;;21.38;36.57;98879.09;4212634;28;19928;-71
2024/03/31 06:58:46;;;;;;;;;;;;;;;21.41;36.55;98881.44;4212729;28;19924;-69
2024/03/31 07:00:46;;;;;;;;;;;;;;;21.42;36.51;98880.41;4212946;28;19959;-70
2024/03/31 07:02:48;;;;;;;;;;;;;;;21.42;36.29;98875.06;4212865;28;20436;-70
2024/03/31 07:04:49;;;;;;;;;;;;;;;21.41;36.34;98868.06;4212770;28;20419;-70
2024/03/31 07:06:50;;;;;;;;;;;;;;;21.39;36.47;98870.88;4212667;28;19959;-70
2024/03/31 07:08:51;;;;;;;;;;;;;;;21.41;36.34;98870.72;4212585;28;20423;-68
2024/03/31 07:10:51;;;;;;;;;;;;;;;21.40;36.31;98869.06;4212324;28;19954;-69
2024/03/31 07:12:52;;;;;;;;;;;;;;;21.39;36.24;98868.22;4212593;28;19928;-70
2024/03/31 07:14:53;;;;;;;;;;;;;;;21.40;36.18;98871.72;4212774;28;20010;-70
2024/03/31 07:16:54;;;;;;;;;;;;;;;21.38;36.56;98868.38;4212534;28;20427;-70
2024/03/31 07:18:55;;;;;;;;;;;;;;;21.39;36.49;98868.22;4212310;28;19924;-69
2024/03/31 07:20:56;;;;;;;;;;;;;;;21.39;36.37;98865.53;4212636;28;19931;-69
2024/03/31 07:22:57;;;;;;;;;;;;;;;21.39;36.39;98868.22;4212392;28;20015;-69
2024/03/31 07:24:58;;;;;;;;;;;;;;;21.41;36.24;98865.38;4212461;28;19931;-69
2024/03/31 07:26:58;;;;;;;;;;;;;;;21.42;36.58;98861.69;4212066;28;19935;-69
2024/03/31 07:28:59;;;;;;;;;;;;;;;21.43;36.60;98859.84;4195710;28;19975;-69
2024/03/31 07:31:00;;;;;;;;;;;;;;;21.44;36.17;98853.50;4212424;28;19978;-70
2024/03/31 07:33:01;;;;;;;;;;;;;;;21.47;36.47;98850.47;4212293;28;20522;-70
2024/03/31 07:35:02;;;;;;;;;;;;;;;21.50;36.48;98844.78;4212419;28;19932;-70
2024/03/31 07:37:03;;;;;;;;;;;;;;;21.55;36.40;98855.81;4212328;28;19924;-71
2024/03/31 07:39:04;;;;;;;;;;;;;;;21.55;36.20;98845.94;4195905;28;19928;-71
2024/03/31 07:41:05;;;;;;;;;;;;;;;21.58;36.04;98833.25;4211999;28;19960;-70
2024/03/31 07:43:08;;;;;;;;;;;;;;;21.59;36.16;98833.09;4214747;28;19982;-68
2024/03/31 07:45:09;;;;;;;;;;;;;;;21.60;36.22;98834.75;4215944;28;19990;-71
2024/03/31 07:47:10;;;;;;;;;;;;;;;21.62;36.08;98830.06;4215824;28;19931;-69
2024/03/31 07:49:11;;;;;;;;;;;;;;;21.65;36.28;98834.25;4215770;28;19924;-69
2024/03/31 07:51:12;;;;;;;;;;;;;;;21.68;36.18;98829.38;4215752;28;19928;-69
2024/03/31 07:53:13;;;;;;;;;;;;;;;21.69;36.11;98831.06;4215636;28;19924;-68
2024/03/31 07:55:14;;;;;;;;;;;;;;;21.71;36.24;98833.53;4215111;28;19924;-68
2024/03/31 07:57:15;;;;;;;;;;;;;;;21.73;36.01;98833.41;4215460;28;19924;-70
2024/03/31 07:59:16;;;;;;;;;;;;;;;21.73;35.92;98828.03;4215595;28;19924;-70
2024/03/31 08:01:17;;;;;;;;;;;;;;;21.74;36.20;98832.38;4215683;28;19934;-70
2024/03/31 08:03:17;;;;;;;;;;;;;;;21.75;36.07;98831.34;4215659;28;20355;-70
2024/03/31 08:05:18;;;;;;;;;;;;;;;21.76;36.08;98833.03;4215535;28;19931;-70
2024/03/31 08:07:19;;;;;;;;;;;;;;;21.76;36.00;98835.72;4215564;28;20377;-69
2024/03/31 08:09:20;;;;;;;;;;;;;;;21.75;35.81;98839.38;4248831;27;20015;-69
2024/03/31 08:11:21;;;;;;;;;;;;;;;21.75;35.97;98842.91;4215617;28;20020;-71
2024/03/31 08:13:21;;;;;;;;;;;;;;;21.80;35.88;98840.53;4215398;28;19924;-70
2024/03/31 08:15:22;;;;;;;;;;;;;;;21.79;36.11;98841.53;4215312;28;19924;-70
2024/03/31 08:17:23;;;;;;;;;;;;;;;21.80;36.13;98840.53;4215217;28;19924;-69
2024/03/31 08:19:25;;;;;;;;;;;;;;;21.82;35.67;98835.00;4215339;28;19963;-69
2024/03/31 08:21:25;;;;;;;;;;;;;;;21.81;35.78;98834.19;4215413;28;19924;-70
2024/03/31 08:23:26;;;;;;;;;;;;;;;21.83;35.96;98839.34;4214886;28;19990;-70
2024/03/31 08:25:27;;;;;;;;;;;;;;;21.84;35.87;98839.19;4215136;28;19978;-70
2024/03/31 08:27:28;;;;;;;;;;;;;;;21.87;35.85;98840.66;4215314;28;20004;-69
2024/03/31 08:29:28;;;;;;;;;;;;;;;21.86;35.99;98839.84;4215165;28;19935;-69
2024/03/31 08:31:29;;;;;;;;;;;;;;;21.89;35.84;98837.84;4215040;28;20419;-69
2024/03/31 08:33:30;;;;;;;;;;;;;;;21.88;35.81;98828.13;4215097;28;19924;-70
2024/03/31 08:35:31;;;;;;;;;;;;;;;21.89;35.80;98837.84;4214832;28;19974;-69
2024/03/31 08:37:32;;;;;;;;;;;;;;;21.86;35.76;98839.84;4215025;28;19930;-69
2024/03/31 08:39:32;;;;;;;;;;;;;;;21.89;35.79;98840.50;4214594;28;19924;-69
2024/03/31 08:41:40;;;;;;;;;;;;;;;21.90;35.97;98839.50;4214863;28;19924;-69
2024/03/31 08:43:44;;;;;;;;;;;;;;;21.92;35.82;98841.00;4214721;28;19924;-69
2024/03/31 08:45:46;;;;;;;;;;;;;;;21.94;35.84;98841.63;4215010;28;19946;-69
2024/03/31 08:47:52;;;;;;;;;;;;;;;21.96;35.50;98838.81;4214712;28;19924;-69
2024/03/31 08:49:54;;;;;;;;;;;;;;;21.96;35.95;98834.28;4214746;28;20411;-69
2024/03/31 08:51:55;;;;;;;;;;;;;;;21.96;36.03;98825.44;4214977;28;19924;-69
2024/03/31 08:53:56;;;;;;;;;;;;;;;21.96;35.64;98823.56;4213591;28;20439;-69
2024/03/31 08:55:57;;;;;;;;;;;;;;;21.95;35.78;98818.41;4214644;28;19928;-69
2024/03/31 08:57:58;;;;;;;;;;;;;;;21.98;35.56;98818.88;4214620;28;19928;-69
2024/03/31 08:59:58;;;;;;;;;;;;;;;21.97;35.93;98821.72;4214671;28;19958;-68
2024/03/31 09:02:00;;;;;;;;;;;;;;;21.97;36.06;98811.88;4214637;28;19924;-68
2024/03/31 09:04:02;;;;;;;;;;;;;;;21.96;35.89;98812.03;4214447;28;20450;-69
2024/03/31 09:06:03;;;;;;;;;;;;;;;21.94;35.61;98814.06;4214556;28;19928;-70
2024/03/31 09:08:04;;;;;;;;;;;;;;;21.96;36.04;98809.38;4213660;28;20002;-70
2024/03/31 09:10:05;;;;;;;;;;;;;;;21.97;35.97;98809.19;4214350;28;19924;-68
2024/03/31 09:12:07;;;;;;;;;;;;;;;21.97;35.76;98805.66;4214233;28;19924;-68
2024/03/31 09:14:08;;;;;;;;;;;;;;;21.99;35.65;98809.00;4214457;28;19928;-68
2024/03/31 09:16:10;;;;;;;;;;;;;;;22.01;36.01;98812.34;4213968;28;19924;-69
2024/03/31 09:18:11;;;;;;;;;;;;;;;22.02;35.87;98798.78;4214480;28;19930;-68
2024/03/31 09:20:11;;;;;;;;;;;;;;;22.02;36.03;98806.81;4214164;28;19924;-69
2024/03/31 09:22:15;;;;;;;;;;;;;;;22.05;35.92;98810.16;4213774;28;19924;-68
2024/03/31 09:24:16;;;;;;;;;;;;;;;22.06;35.66;98801.94;4214102;28;20348;-69
2024/03/31 09:26:17;;;;;;;;;;;;;;;22.06;35.58;98806.47;4213847;28;19928;-69
2024/03/31 09:28:19;;;;;;;;;;;;;;;22.06;35.92;98798.44;4214024;28;19935;-69
2024/03/31 09:30:22;;;;;;;;;;;;;;;22.06;35.60;98801.13;4214055;28;20424;-70
2024/03/31 09:32:25;;;;;;;;;;;;;;;22.08;35.89;98799.06;4214097;28;19924;-69
2024/03/31 09:34:26;;;;;;;;;;;;;;;22.06;35.74;98793.91;4214078;28;19930;-70
2024/03/31 09:36:27;;;;;;;;;;;;;;;22.05;35.91;98800.25;4213576;28;19950;-69
2024/03/31 09:38:29;;;;;;;;;;;;;;;22.05;35.67;98808.28;4213906;28;19928;-69
2024/03/31 09:40:30;;;;;;;;;;;;;;;22.07;35.68;98802.78;4213763;28;19924;-70
2024/03/31 09:42:31;;;;;;;;;;;;;;;22.09;35.94;98803.44;4213640;28;19925;-70
2024/03/31 09:44:32;;;;;;;;;;;;;;;22.11;35.77;98793.38;4213565;28;19925;-70
2024/03/31 09:46:34;;;;;;;;;;;;;;;22.11;35.95;98788.84;4213900;28;20317;-70
2024/03/31 09:48:39;;;;;;;;;;;;;;;22.09;36.07;98787.38;4213829;28;20293;-70
2024/03/31 09:50:50;;;;;;;;;;;;;;;22.12;35.89;98797.72;4213309;28;19972;-70
2024/03/31 09:52:55;;;;;;;;;;;;;;;22.11;35.91;98794.19;4213541;28;19924;-70
2024/03/31 09:54:57;;;;;;;;;;;;;;;22.11;35.81;98791.53;4213673;28;19950;-70
2024/03/31 09:57:03;;;;;;;;;;;;;;;22.12;35.89;98787.84;4213780;28;19928;-69
2024/03/31 09:59:08;;;;;;;;;;;;;;;22.10;36.02;98786.34;4197092;28;19928;-69
2024/03/31 10:01:11;;;;;;;;;;;;;;;22.11;36.03;98793.38;4213424;28;20411;-71
2024/03/31 10:03:18;;;;;;;;;;;;;;;22.11;35.95;98791.53;4213439;28;20006;-70
2024/03/31 10:05:34;;;;;;;;;;;;;;;22.12;35.81;98800.41;4213168;28;19930;-70
2024/03/31 10:07:35;;;;;;;;;;;;;;;22.13;35.58;98792.19;4213590;28;19924;-72
2024/03/31 10:09:37;;;;;;;;;;;;;;;22.15;35.96;98797.38;4213294;28;20441;-69
2024/03/31 10:11:40;;;;;;;;;;;;;;;22.15;35.94;98797.38;4213552;28;19938;-69
2024/03/31 10:13:43;;;;;;;;;;;;;;;22.16;35.73;98791.84;4213553;28;19938;-70
2024/03/31 10:15:45;;;;;;;;;;;;;;;22.17;35.95;98793.50;4213439;28;19931;-70
2024/03/31 10:17:50;;;;;;;;;;;;;;;22.19;35.91;98785.31;4213357;28;20401;-70
2024/03/31 10:19:52;;;;;;;;;;;;;;;22.21;35.72;98787.78;4212795;28;19930;-70
2024/03/31 10:21:54;;;;;;;;;;;;;;;22.24;35.75;98793.63;4213008;28;19982;-70
2024/03/31 10:23:56;;;;;;;;;;;;;;;22.23;35.79;98797.31;4213011;28;19935;-69
2024/03/31 10:25:57;;;;;;;;;;;;;;;22.23;35.89;98794.63;4213455;28;19931;-71
2024/03/31 10:27:58;;;;;;;;;;;;;;;22.24;35.69;98803.53;4213307;28;19931;-69
2024/03/31 10:30:00;;;;;;;;;;;;;;;22.22;35.74;98786.78;4213224;28;19924;-71
2024/03/31 10:32:01;;;;;;;;;;;;;;;22.22;35.91;98781.44;4213294;28;20409;-70